Time;durP1;ratioP1;P1;durP2;ratioP2;P2;SDS_P1;SDS_P2;PMS_P1;PMS_P2;Temp;Humidity;BMP_temperature;BMP_pressure;BME280_temperature;BME280_humidity;BME280_pressure;Samples;Min_cycle;Max_cycle;Signal;HPM_P1;HPM_P2
2024/01/04 00:00:35;;;;;;;0.35;0.08;;;;;;;9.16;100.00;95526.13;5032551;28;20432;-76
2024/01/04 00:03:02;;;;;;;0.10;0.10;;;;;;;9.24;100.00;95525.09;5038197;28;20061;-76
2024/01/04 00:05:29;;;;;;;1.00;0.10;;;;;;;8.97;100.00;95526.91;5025658;28;20088;-76
2024/01/04 00:07:56;;;;;;;0.10;0.10;;;;;;;9.30;100.00;95529.06;5029112;28;20054;-78
2024/01/04 00:10:23;;;;;;;0.68;0.20;;;;;;;9.24;100.00;95525.88;5028521;28;20643;-80
2024/01/04 00:12:51;;;;;;;2.08;0.25;;;;;;;9.23;100.00;95527.03;5031763;28;20091;-78
2024/01/04 00:15:18;;;;;;;1.42;0.20;;;;;;;9.31;100.00;95522.56;5037012;28;20462;-77
2024/01/04 00:17:46;;;;;;;0.70;0.20;;;;;;;9.43;100.00;95524.28;5033145;28;20049;-78
2024/01/04 00:20:13;;;;;;;2.67;0.30;;;;;;;9.13;100.00;95521.44;5041903;28;20621;-79
2024/01/04 00:22:39;;;;;;;2.50;0.20;;;;;;;9.31;100.00;95530.66;5020107;28;20060;-77
2024/01/04 00:25:08;;;;;;;0.00;0.00;;;;;;;9.25;100.00;95530.16;5028811;28;20588;-78
2024/01/04 00:27:35;;;;;;;0.68;0.20;;;;;;;9.21;100.00;95531.22;5046466;28;20095;-77
2024/01/04 00:30:02;;;;;;;0.68;0.15;;;;;;;9.13;100.00;95530.31;5023983;28;20046;-78
2024/01/04 00:32:30;;;;;;;0.88;0.20;;;;;;;9.09;100.00;95523.28;5040043;28;20740;-78
2024/01/04 00:34:57;;;;;;;2.45;0.38;;;;;;;9.24;100.00;95530.50;5033894;28;20789;-77
2024/01/04 00:37:24;;;;;;;1.25;0.40;;;;;;;9.20;100.00;95527.75;5042282;28;20090;-76
2024/01/04 00:39:51;;;;;;;2.33;0.30;;;;;;;9.40;100.00;95529.28;5044269;28;20053;-77
2024/01/04 00:42:17;;;;;;;1.45;0.28;;;;;;;9.34;100.00;95521.84;5040664;28;20034;-78
2024/01/04 00:44:44;;;;;;;1.75;0.40;;;;;;;9.47;100.00;95527.84;5038793;28;20058;-77
2024/01/04 00:47:11;;;;;;;3.78;0.28;;;;;;;9.36;100.00;95516.84;5040218;28;20040;-76
2024/01/04 00:49:38;;;;;;;1.23;0.13;;;;;;;9.40;100.00;95521.19;5031705;28;20095;-77
2024/01/04 00:52:07;;;;;;;0.13;0.10;;;;;;;9.27;100.00;95517.06;5022933;28;20045;-78
2024/01/04 00:54:34;;;;;;;0.68;0.15;;;;;;;9.52;100.00;95525.63;5028768;28;20042;-76
2024/01/04 00:57:01;;;;;;;0.10;0.10;;;;;;;9.47;100.00;95520.53;5032359;28;20049;-76
2024/01/04 00:59:27;;;;;;;1.13;0.20;;;;;;;9.52;100.00;95530.25;5041692;28;20504;-76
2024/01/04 01:01:54;;;;;;;1.70;0.30;;;;;;;9.57;100.00;95521.84;5025296;28;20429;-76
2024/01/04 01:04:21;;;;;;;0.20;0.20;;;;;;;9.63;100.00;95532.00;5039237;28;20072;-76
2024/01/04 01:06:50;;;;;;;2.08;0.20;;;;;;;9.53;100.00;95534.50;5033400;28;20065;-76
2024/01/04 01:09:18;;;;;;;0.05;0.03;;;;;;;9.63;100.00;95540.09;5044155;28;20383;-78
2024/01/04 01:11:45;;;;;;;0.88;0.05;;;;;;;9.59;100.00;95523.06;5046309;28;20040;-76
2024/01/04 01:14:12;;;;;;;0.60;0.10;;;;;;;9.66;100.00;95542.09;5003240;28;1113627;-77
2024/01/04 01:16:38;;;;;;;3.30;0.30;;;;;;;9.61;100.00;95536.19;5034339;28;20071;-76
2024/01/04 01:19:05;;;;;;;0.22;0.10;;;;;;;9.68;100.00;95547.91;5038909;28;20048;-78
2024/01/04 01:21:32;;;;;;;0.30;0.25;;;;;;;9.56;100.00;95548.06;5041283;28;20049;-76
2024/01/04 01:23:59;;;;;;;0.15;0.10;;;;;;;9.63;100.00;95553.59;5066195;28;20042;-78
2024/01/04 01:26:26;;;;;;;0.52;0.10;;;;;;;9.74;100.00;95564.59;5037004;28;20716;-79
2024/01/04 01:28:53;;;;;;;1.55;0.10;;;;;;;9.71;100.00;95541.78;5040956;28;20182;-77
2024/01/04 01:31:20;;;;;;;0.65;0.20;;;;;;;9.71;100.00;95547.19;5033070;28;20548;-79
2024/01/04 01:33:47;;;;;;;0.70;0.20;;;;;;;9.75;100.00;95548.03;5042073;28;20102;-79
2024/01/04 01:36:14;;;;;;;0.20;0.10;;;;;;;9.86;100.00;95542.78;5041095;28;20030;-78
2024/01/04 01:38:40;;;;;;;0.85;0.22;;;;;;;9.92;100.00;95536.75;5037230;28;20091;-76
2024/01/04 01:41:07;;;;;;;0.57;0.10;;;;;;;9.86;100.00;95540.09;5019391;28;20042;-79
2024/01/04 01:43:34;;;;;;;0.82;0.30;;;;;;;9.96;100.00;95550.31;5033282;28;20091;-77
2024/01/04 01:46:02;;;;;;;0.30;0.10;;;;;;;9.85;100.00;95535.84;5031087;28;20083;-76
2024/01/04 01:48:28;;;;;;;1.27;0.20;;;;;;;9.85;100.00;95533.94;5063216;28;20056;-78
2024/01/04 01:50:57;;;;;;;1.10;0.10;;;;;;;9.79;100.00;95532.66;5038035;28;20045;-76
2024/01/04 01:53:24;;;;;;;0.35;0.10;;;;;;;9.76;100.00;95535.28;5031523;28;20041;-77
2024/01/04 01:55:54;;;;;;;0.47;0.10;;;;;;;9.83;100.00;95541.59;5023366;28;20128;-77
2024/01/04 01:58:21;;;;;;;0.85;0.28;;;;;;;9.76;100.00;95532.59;5036977;28;20057;-77
2024/01/04 02:00:48;;;;;;;0.20;0.10;;;;;;;9.66;100.00;95550.19;5043863;28;20472;-78
2024/01/04 02:03:17;;;;;;;0.47;0.10;;;;;;;9.96;100.00;95547.63;5048322;28;20052;-77
2024/01/04 02:05:44;;;;;;;1.55;0.20;;;;;;;9.86;100.00;95559.78;5039832;28;20135;-77
2024/01/04 02:08:11;;;;;;;0.35;0.13;;;;;;;9.90;100.00;95551.75;5036191;28;20037;-77
2024/01/04 02:10:38;;;;;;;1.08;0.20;;;;;;;9.94;100.00;95556.06;5030109;28;20046;-77
2024/01/04 02:13:05;;;;;;;0.10;0.10;;;;;;;10.07;100.00;95555.88;5027590;28;20046;-77
2024/01/04 02:15:32;;;;;;;0.32;0.20;;;;;;;10.07;100.00;95564.78;5033751;28;20048;-77
2024/01/04 02:17:59;;;;;;;0.55;0.10;;;;;;;10.01;100.00;95558.88;5032926;28;20054;-77
2024/01/04 02:20:26;;;;;;;2.28;0.10;;;;;;;9.92;100.00;95554.88;5035498;28;20397;-80
2024/01/04 02:22:53;;;;;;;1.73;0.30;;;;;;;10.02;100.00;95551.56;5042094;28;20080;-79
2024/01/04 02:25:20;;;;;;;0.40;0.10;;;;;;;9.86;100.00;95556.31;5042159;28;20048;-78
2024/01/04 02:27:47;;;;;;;0.63;0.20;;;;;;;10.04;100.00;95560.88;5049961;28;20072;-79
2024/01/04 02:30:14;;;;;;;0.20;0.13;;;;;;;9.91;100.00;95561.44;5041461;28;20752;-79
2024/01/04 02:32:41;;;;;;;0.47;0.30;;;;;;;9.80;100.00;95550.44;5047335;28;20101;-79
2024/01/04 02:35:08;;;;;;;2.45;0.20;;;;;;;9.99;100.00;95560.38;5041472;28;20071;-79
2024/01/04 02:37:35;;;;;;;0.35;0.20;;;;;;;9.92;100.00;95544.84;5038662;28;20056;-78
2024/01/04 02:40:02;;;;;;;0.25;0.20;;;;;;;9.88;100.00;95549.41;5031158;28;20048;-80
2024/01/04 02:42:31;;;;;;;0.98;0.30;;;;;;;9.84;100.00;95551.28;5043558;28;20045;-78
2024/01/04 02:44:58;;;;;;;0.38;0.10;;;;;;;9.65;100.00;95564.06;5036393;28;20053;-79
2024/01/04 02:47:25;;;;;;;1.10;0.20;;;;;;;9.92;100.00;95569.16;5046760;28;20071;-81
2024/01/04 02:49:53;;;;;;;0.50;0.20;;;;;;;9.95;100.00;95560.34;5039125;28;20128;-79
2024/01/04 02:52:20;;;;;;;0.25;0.20;;;;;;;9.78;100.00;95566.22;5041382;28;20057;-79
2024/01/04 02:54:46;;;;;;;0.63;0.20;;;;;;;9.75;100.00;95556.16;5048579;28;20048;-79
2024/01/04 02:57:14;;;;;;;0.10;0.10;;;;;;;9.66;100.00;95555.59;5041980;28;20068;-79
2024/01/04 02:59:40;;;;;;;0.20;0.10;;;;;;;9.66;100.00;95552.88;5030127;28;20036;-77
2024/01/04 03:02:07;;;;;;;1.10;0.10;;;;;;;9.84;100.00;95564.78;5040908;28;20042;-79
2024/01/04 03:04:36;;;;;;;0.35;0.10;;;;;;;9.79;100.00;95556.97;5041553;28;20057;-77
2024/01/04 03:07:03;;;;;;;1.60;0.20;;;;;;;9.62;100.00;95526.97;5042894;28;20117;-79
2024/01/04 03:09:30;;;;;;;0.10;0.10;;;;;;;9.68;100.00;95528.22;5043997;28;20044;-78
2024/01/04 03:11:56;;;;;;;0.85;0.20;;;;;;;9.74;100.00;95532.19;5046295;28;20053;-78
2024/01/04 03:14:23;;;;;;;0.30;0.20;;;;;;;9.68;100.00;95525.53;5044238;28;20491;-78
2024/01/04 03:16:50;;;;;;;0.30;0.10;;;;;;;9.75;100.00;95534.53;5031789;28;20054;-76
2024/01/04 03:19:17;;;;;;;0.08;0.08;;;;;;;9.70;100.00;95548.34;5044958;28;20042;-76
2024/01/04 03:21:45;;;;;;;1.23;0.20;;;;;;;9.64;100.00;95536.25;5051699;28;20057;-76
2024/01/04 03:24:11;;;;;;;0.28;0.10;;;;;;;9.47;100.00;95536.75;5045187;28;20064;-77
2024/01/04 03:26:38;;;;;;;0.75;0.10;;;;;;;9.44;100.00;95542.84;5051418;28;20048;-77
2024/01/04 03:29:05;;;;;;;0.30;0.10;;;;;;;9.45;100.00;95539.00;5048305;28;20073;-76
2024/01/04 03:31:33;;;;;;;3.17;0.20;;;;;;;9.20;100.00;95554.75;5048207;28;20046;-78
2024/01/04 03:34:02;;;;;;;0.20;0.10;;;;;;;9.21;100.00;95555.53;5045155;28;20053;-78
2024/01/04 03:36:29;;;;;;;0.43;0.10;;;;;;;9.20;100.00;95551.25;5034856;28;20405;-78
2024/01/04 03:38:57;;;;;;;1.58;0.10;;;;;;;9.07;100.00;95549.84;5021677;28;20049;-76
2024/01/04 03:41:24;;;;;;;1.35;0.10;;;;;;;9.14;100.00;95550.75;5039714;28;20061;-78
2024/01/04 03:43:51;;;;;;;1.13;0.17;;;;;;;9.00;100.00;95555.09;5049589;28;20049;-78
2024/01/04 03:46:18;;;;;;;0.20;0.20;;;;;;;8.99;100.00;95554.31;5049500;28;20041;-78
2024/01/04 03:48:45;;;;;;;1.08;0.10;;;;;;;8.91;100.00;95574.19;5033308;28;20052;-76
2024/01/04 03:51:13;;;;;;;0.20;0.15;;;;;;;8.99;100.00;95559.72;5049288;28;20052;-77
2024/01/04 03:53:40;;;;;;;0.08;0.08;;;;;;;8.97;100.00;95569.31;5034022;28;20049;-77
2024/01/04 03:56:07;;;;;;;0.45;0.15;;;;;;;8.97;100.00;95567.38;5049055;28;20037;-76
2024/01/04 03:58:34;;;;;;;0.00;0.00;;;;;;;8.73;100.00;95548.75;5039764;28;20048;-77
2024/01/04 04:01:04;;;;;;;0.55;0.10;;;;;;;8.87;100.00;95556.38;5048086;28;20045;-77
2024/01/04 04:03:31;;;;;;;0.30;0.10;;;;;;;8.89;100.00;95560.28;5051519;28;20557;-75
2024/01/04 04:06:04;;;;;;;0.35;0.10;;;;;;;8.87;100.00;95564.47;5048463;28;20408;-79
2024/01/04 04:08:31;;;;;;;0.43;0.10;;;;;;;8.90;100.00;95579.94;5047247;28;20435;-79
2024/01/04 04:10:58;;;;;;;0.57;0.57;;;;;;;8.96;100.00;95570.41;5048647;28;20102;-76
2024/01/04 04:13:25;;;;;;;0.10;0.08;;;;;;;8.90;100.00;95571.84;5043058;28;20041;-78
2024/01/04 04:15:52;;;;;;;0.30;0.10;;;;;;;9.01;100.00;95578.22;5039468;28;20053;-78
2024/01/04 04:18:19;;;;;;;0.85;0.20;;;;;;;9.17;100.00;95571.66;5038685;28;20053;-78
2024/01/04 04:20:46;;;;;;;1.52;0.20;;;;;;;9.21;100.00;95579.81;5035592;28;20048;-77
2024/01/04 04:23:13;;;;;;;1.55;0.15;;;;;;;9.17;100.00;95585.13;5039008;28;20042;-78
2024/01/04 04:25:43;;;;;;;0.20;0.10;;;;;;;9.22;100.00;95590.25;5034879;28;20435;-77
2024/01/04 04:28:13;;;;;;;0.13;0.13;;;;;;;9.25;100.00;95592.25;5031855;28;20042;-77
2024/01/04 04:30:39;;;;;;;0.47;0.15;;;;;;;9.29;100.00;95603.13;5008552;28;20642;-79
2024/01/04 04:33:06;;;;;;;0.73;0.17;;;;;;;9.16;100.00;95602.47;5034684;28;20575;-77
2024/01/04 04:35:34;;;;;;;2.20;0.30;;;;;;;9.16;100.00;95596.31;5030784;28;20512;-78
2024/01/04 04:38:09;;;;;;;0.63;0.20;;;;;;;8.96;100.00;95586.63;5026497;28;20112;-78
2024/01/04 04:40:36;;;;;;;1.42;0.15;;;;;;;9.13;100.00;95621.31;5031960;28;20041;-78
2024/01/04 04:43:03;;;;;;;1.85;0.20;;;;;;;9.22;100.00;95605.66;5042569;28;20119;-78
2024/01/04 04:45:30;;;;;;;0.30;0.13;;;;;;;9.19;100.00;95609.06;5040870;28;20041;-79
2024/01/04 04:47:56;;;;;;;1.90;0.20;;;;;;;9.17;100.00;95609.44;5018696;28;20135;-80
2024/01/04 04:50:23;;;;;;;0.63;0.10;;;;;;;9.00;100.00;95604.47;5043302;28;20045;-78
2024/01/04 04:52:50;;;;;;;0.93;0.20;;;;;;;8.96;100.00;95614.38;5048073;28;20079;-77
2024/01/04 04:55:17;;;;;;;0.68;0.25;;;;;;;8.97;100.00;95613.25;5019289;28;20045;-79
2024/01/04 04:57:44;;;;;;;0.17;0.10;;;;;;;8.89;100.00;95603.44;5037758;28;20079;-77
2024/01/04 05:00:11;;;;;;;0.17;0.10;;;;;;;8.90;100.00;95623.13;5016622;28;20045;-80
2024/01/04 05:02:38;;;;;;;0.70;0.10;;;;;;;8.85;100.00;95623.41;5029355;28;20052;-77
2024/01/04 05:05:05;;;;;;;0.43;0.20;;;;;;;9.11;100.00;95628.97;5030050;28;20490;-80
2024/01/04 05:07:32;;;;;;;0.17;0.10;;;;;;;9.14;100.00;95626.34;5012833;28;20041;-78
2024/01/04 05:09:58;;;;;;;0.80;0.20;;;;;;;9.17;100.00;95633.72;5031058;28;20049;-77
2024/01/04 05:12:25;;;;;;;0.77;0.10;;;;;;;9.22;100.00;95646.16;5025578;28;20076;-79
2024/01/04 05:14:52;;;;;;;0.88;0.20;;;;;;;9.22;100.00;95640.75;5055817;28;20050;-78
2024/01/04 05:17:19;;;;;;;0.08;0.00;;;;;;;9.13;100.00;95646.38;5018102;28;20037;-77
2024/01/04 05:19:47;;;;;;;1.55;0.25;;;;;;;9.17;100.00;95649.13;5014200;28;20073;-78
2024/01/04 05:22:14;;;;;;;0.90;0.10;;;;;;;9.21;100.00;95645.38;5022846;28;20037;-78
2024/01/04 05:24:40;;;;;;;0.47;0.25;;;;;;;9.24;100.00;95660.84;5027142;28;20045;-77
2024/01/04 05:27:07;;;;;;;0.10;0.10;;;;;;;9.48;100.00;95665.22;5034984;28;20037;-78
2024/01/04 05:29:34;;;;;;;0.68;0.20;;;;;;;9.31;100.00;95658.34;5020527;28;20099;-77
2024/01/04 05:32:02;;;;;;;0.10;0.10;;;;;;;9.45;100.00;95665.91;5008870;28;20049;-77
2024/01/04 05:34:32;;;;;;;0.85;0.10;;;;;;;9.45;100.00;95673.22;5023902;28;20048;-78
2024/01/04 05:37:03;;;;;;;0.10;0.10;;;;;;;9.11;100.00;95666.75;5036336;28;20132;-76
2024/01/04 05:39:30;;;;;;;1.67;0.10;;;;;;;9.13;100.00;95664.47;5035047;28;20045;-77
2024/01/04 05:41:56;;;;;;;0.45;0.10;;;;;;;9.07;100.00;95685.56;5036637;28;20109;-77
2024/01/04 05:44:23;;;;;;;0.98;0.20;;;;;;;9.13;100.00;95688.78;5038004;28;20067;-78
2024/01/04 05:46:50;;;;;;;0.25;0.15;;;;;;;9.07;100.00;95695.56;5049365;28;20064;-78
2024/01/04 05:49:17;;;;;;;0.50;0.30;;;;;;;9.07;100.00;95692.88;5049149;28;20071;-78
2024/01/04 05:51:44;;;;;;;1.27;0.10;;;;;;;9.01;100.00;95696.97;5042330;28;20673;-77
2024/01/04 05:54:11;;;;;;;0.50;0.10;;;;;;;9.23;100.00;95707.91;5029359;28;20412;-78
2024/01/04 05:56:38;;;;;;;0.10;0.10;;;;;;;8.97;100.00;95706.91;5031843;28;20037;-77
2024/01/04 05:59:05;;;;;;;0.25;0.13;;;;;;;8.98;100.00;95714.66;5062961;28;20040;-77
2024/01/04 06:01:32;;;;;;;0.00;0.00;;;;;;;9.04;100.00;95742.16;5062958;28;20103;-77
2024/01/04 06:03:59;;;;;;;0.85;0.10;;;;;;;9.06;100.00;95721.78;5063460;28;20048;-77
2024/01/04 06:06:26;;;;;;;0.50;0.20;;;;;;;9.16;100.00;95733.97;5022800;28;20508;-76
2024/01/04 06:08:53;;;;;;;0.20;0.10;;;;;;;9.14;100.00;95755.09;5024058;28;20057;-79
2024/01/04 06:11:20;;;;;;;0.20;0.20;;;;;;;9.20;100.00;95737.50;5030493;28;20045;-77
2024/01/04 06:13:46;;;;;;;0.57;0.10;;;;;;;9.32;100.00;95757.06;5025858;28;20055;-78
2024/01/04 06:16:13;;;;;;;0.20;0.10;;;;;;;9.02;100.00;95752.50;5025919;28;20037;-78
2024/01/04 06:18:40;;;;;;;1.65;0.10;;;;;;;9.28;100.00;95768.94;5025791;28;20038;-78
2024/01/04 06:21:07;;;;;;;0.10;0.10;;;;;;;9.18;100.00;95754.06;5029843;28;20132;-78
2024/01/04 06:23:34;;;;;;;0.40;0.10;;;;;;;9.12;100.00;95768.16;5030304;28;20052;-77
2024/01/04 06:26:01;;;;;;;0.10;0.10;;;;;;;9.11;100.00;95770.09;5034209;28;21617;-79
2024/01/04 06:28:28;;;;;;;0.17;0.10;;;;;;;9.13;100.00;95789.44;5013202;28;20095;-77
2024/01/04 06:30:54;;;;;;;0.22;0.13;;;;;;;9.22;100.00;95779.22;5029861;28;20045;-78
2024/01/04 06:33:21;;;;;;;0.65;0.10;;;;;;;9.11;100.00;95782.81;5030780;28;20072;-77
2024/01/04 06:35:49;;;;;;;0.30;0.10;;;;;;;9.18;100.00;95783.75;5003529;28;20045;-77
2024/01/04 06:38:15;;;;;;;0.65;0.10;;;;;;;9.17;100.00;95789.50;5043158;28;20045;-77
2024/01/04 06:40:42;;;;;;;0.55;0.10;;;;;;;9.06;100.00;95786.53;5039410;28;20072;-78
2024/01/04 06:43:09;;;;;;;0.10;0.10;;;;;;;9.11;100.00;95799.78;5044706;28;20041;-78
2024/01/04 06:45:36;;;;;;;0.10;0.10;;;;;;;9.23;100.00;95801.59;5029529;28;20053;-77
2024/01/04 06:48:04;;;;;;;0.13;0.05;;;;;;;9.42;100.00;95808.97;5039205;28;20446;-77
2024/01/04 06:50:31;;;;;;;0.20;0.20;;;;;;;9.24;100.00;95820.13;5039750;28;20044;-77
2024/01/04 06:52:58;;;;;;;0.52;0.10;;;;;;;9.21;100.00;95809.28;5042493;28;20470;-77
2024/01/04 06:55:25;;;;;;;0.10;0.10;;;;;;;9.15;100.00;95818.75;5039573;28;20561;-77
2024/01/04 06:57:52;;;;;;;1.42;0.20;;;;;;;9.08;100.00;95827.47;5038410;28;20069;-77
2024/01/04 07:00:19;;;;;;;0.55;0.17;;;;;;;9.22;100.00;95829.72;5043339;28;20029;-77
2024/01/04 07:02:46;;;;;;;0.22;0.20;;;;;;;9.26;100.00;95827.91;5040831;28;20040;-76
2024/01/04 07:05:13;;;;;;;1.52;0.17;;;;;;;9.29;100.00;95824.50;5036785;28;20080;-76
2024/01/04 07:07:40;;;;;;;0.32;0.20;;;;;;;9.28;100.00;95836.44;5029717;28;20037;-78
2024/01/04 07:10:07;;;;;;;0.20;0.10;;;;;;;9.15;100.00;95853.84;5020118;28;20037;-78
2024/01/04 07:12:34;;;;;;;0.77;0.20;;;;;;;9.26;100.00;95844.91;5029697;28;20679;-77
2024/01/04 07:15:01;;;;;;;0.30;0.10;;;;;;;9.06;100.00;95842.47;5024547;28;20046;-77
2024/01/04 07:17:27;;;;;;;0.43;0.20;;;;;;;9.17;100.00;95846.97;5022344;28;20504;-79
2024/01/04 07:19:54;;;;;;;0.10;0.10;;;;;;;9.18;100.00;95836.97;5022294;28;20111;-78
2024/01/04 07:22:21;;;;;;;0.30;0.20;;;;;;;9.23;100.00;95844.78;5019726;28;20053;-78
2024/01/04 07:24:48;;;;;;;0.40;0.20;;;;;;;9.21;100.00;95847.06;5018801;28;20046;-75
2024/01/04 07:27:15;;;;;;;0.85;0.20;;;;;;;9.24;100.00;95847.13;5011530;28;20037;-77
2024/01/04 07:29:42;;;;;;;2.10;0.20;;;;;;;9.34;100.00;95856.63;5020930;28;20048;-78
2024/01/04 07:32:09;;;;;;;0.15;0.10;;;;;;;9.23;100.00;95866.41;5022494;28;20052;-79
2024/01/04 07:34:39;;;;;;;0.47;0.20;;;;;;;9.29;100.00;95876.56;5020222;28;20053;-79
2024/01/04 07:37:07;;;;;;;0.22;0.13;;;;;;;9.15;100.00;95872.75;5039336;28;20080;-77
2024/01/04 07:39:33;;;;;;;1.08;0.10;;;;;;;9.26;100.00;95879.19;5039905;28;20065;-79
2024/01/04 07:42:00;;;;;;;0.43;0.20;;;;;;;9.32;100.00;95896.69;5020569;28;20073;-78
2024/01/04 07:44:27;;;;;;;0.22;0.20;;;;;;;9.23;100.00;95904.19;5012408;28;20046;-79
2024/01/04 07:46:54;;;;;;;0.25;0.10;;;;;;;9.19;100.00;95890.59;5019928;28;20081;-79
2024/01/04 07:49:21;;;;;;;0.10;0.10;;;;;;;8.92;100.00;95899.56;5017329;28;20134;-78
2024/01/04 07:51:48;;;;;;;0.10;0.10;;;;;;;9.08;100.00;95886.88;5033224;28;20099;-80
2024/01/04 07:54:15;;;;;;;0.50;0.25;;;;;;;9.14;100.00;95903.56;5024361;28;20050;-79
2024/01/04 07:56:42;;;;;;;0.20;0.20;;;;;;;9.08;100.00;95913.84;5029156;28;20435;-80
2024/01/04 07:59:09;;;;;;;0.40;0.20;;;;;;;8.94;100.00;95918.06;5036206;28;20045;-78
2024/01/04 08:01:36;;;;;;;0.20;0.20;;;;;;;8.94;100.00;95920.78;5031135;28;20049;-80
2024/01/04 08:04:06;;;;;;;1.40;0.30;;;;;;;8.93;100.00;95928.09;5023685;28;20050;-79
2024/01/04 08:06:32;;;;;;;0.50;0.30;;;;;;;8.24;100.00;95924.97;5020753;28;20114;-79
2024/01/04 08:08:59;;;;;;;0.70;0.28;;;;;;;8.17;100.00;95944.41;5033236;28;20128;-80
2024/01/04 08:11:26;;;;;;;2.53;0.20;;;;;;;8.13;100.00;95941.63;5018776;28;20037;-80
2024/01/04 08:13:53;;;;;;;0.30;0.28;;;;;;;8.48;100.00;95941.91;5035948;28;20125;-79
2024/01/04 08:16:20;;;;;;;1.83;0.30;;;;;;;8.68;100.00;95984.06;5028064;28;20119;-78
2024/01/04 08:18:47;;;;;;;0.60;0.40;;;;;;;8.90;100.00;95945.00;5042003;28;20042;-79
2024/01/04 08:21:14;;;;;;;0.50;0.30;;;;;;;9.16;100.00;95961.47;5033424;28;20053;-78
2024/01/04 08:23:42;;;;;;;0.75;0.30;;;;;;;9.09;100.00;95950.50;5035279;28;21387;-78
2024/01/04 08:26:10;;;;;;;0.98;0.38;;;;;;;9.07;100.00;95950.06;5030130;28;20049;-77
2024/01/04 08:28:38;;;;;;;1.27;0.40;;;;;;;9.30;100.00;95945.66;5027766;28;20053;-77
2024/01/04 08:31:05;;;;;;;1.02;0.40;;;;;;;9.50;100.00;95945.75;5025662;28;20120;-79
2024/01/04 08:33:32;;;;;;;1.38;0.30;;;;;;;9.38;100.00;95969.00;5028758;28;20049;-78
2024/01/04 08:35:59;;;;;;;0.47;0.30;;;;;;;9.47;100.00;95968.84;5035062;28;20128;-78
2024/01/04 08:38:26;;;;;;;0.80;0.40;;;;;;;9.36;100.00;95970.47;5037031;28;20041;-78
2024/01/04 08:40:53;;;;;;;0.85;0.40;;;;;;;9.43;100.00;95949.03;5037350;28;20037;-79
2024/01/04 08:43:20;;;;;;;0.90;0.30;;;;;;;9.50;100.00;95973.53;5037519;28;20057;-79
2024/01/04 08:45:47;;;;;;;0.85;0.40;;;;;;;9.48;100.00;95969.59;5026121;28;20046;-80
2024/01/04 08:48:15;;;;;;;1.17;0.35;;;;;;;9.54;100.00;95985.22;5041753;28;20056;-79
2024/01/04 08:50:42;;;;;;;1.63;0.55;;;;;;;9.35;100.00;95979.69;5040880;28;20065;-80
2024/01/04 08:53:10;;;;;;;0.57;0.20;;;;;;;9.27;100.00;95965.22;5043441;28;20038;-80
2024/01/04 08:55:37;;;;;;;0.25;0.10;;;;;;;9.23;100.00;95974.38;5042393;28;20041;-79
2024/01/04 08:58:04;;;;;;;0.60;0.20;;;;;;;9.38;100.00;95973.59;5036893;28;20535;-80
2024/01/04 09:00:34;;;;;;;0.47;0.22;;;;;;;9.53;100.00;95956.63;5042798;28;20615;-81
2024/01/04 09:03:01;;;;;;;0.30;0.20;;;;;;;9.27;100.00;95976.03;5022032;28;20049;-79
2024/01/04 09:05:28;;;;;;;0.10;0.10;;;;;;;9.53;100.00;95978.22;5038316;28;20520;-79
2024/01/04 09:07:55;;;;;;;0.60;0.30;;;;;;;9.25;100.00;95988.31;5033238;28;20097;-79
2024/01/04 09:10:22;;;;;;;0.50;0.30;;;;;;;9.01;100.00;95986.50;5023301;28;20049;-79
2024/01/04 09:12:51;;;;;;;0.57;0.30;;;;;;;8.88;100.00;95986.94;5019295;28;20050;-79
2024/01/04 09:15:18;;;;;;;0.95;0.50;;;;;;;8.85;100.00;95995.72;5033850;28;22047;-78
2024/01/04 09:17:45;;;;;;;0.90;0.40;;;;;;;8.81;100.00;96006.41;5035724;28;20652;-78
2024/01/04 09:20:13;;;;;;;0.32;0.20;;;;;;;8.96;100.00;96005.66;5026634;28;20107;-80
2024/01/04 09:22:41;;;;;;;0.35;0.30;;;;;;;8.64;100.00;95996.69;5022075;28;20060;-79
2024/01/04 09:25:08;;;;;;;0.90;0.43;;;;;;;8.78;100.00;95998.97;5020763;28;20073;-79
2024/01/04 09:27:34;;;;;;;0.98;0.47;;;;;;;8.82;100.00;95997.19;5018870;28;20045;-78
2024/01/04 09:30:01;;;;;;;1.48;0.50;;;;;;;8.74;100.00;96007.00;5013494;28;20050;-80
2024/01/04 09:32:29;;;;;;;0.77;0.40;;;;;;;8.97;100.00;96036.91;5026531;28;20053;-78
2024/01/04 09:34:56;;;;;;;0.85;0.45;;;;;;;9.37;100.00;96028.75;5032600;28;20049;-79
2024/01/04 09:37:23;;;;;;;2.28;0.60;;;;;;;9.10;100.00;96019.56;5026498;28;20042;-80
2024/01/04 09:39:54;;;;;;;0.63;0.45;;;;;;;8.93;100.00;96025.22;5021539;28;20768;-80
2024/01/04 09:42:22;;;;;;;1.15;0.47;;;;;;;8.50;100.00;96033.22;5047406;28;20113;-79
2024/01/04 09:44:52;;;;;;;1.42;0.60;;;;;;;8.94;100.00;96042.22;5027882;28;20046;-80
2024/01/04 09:47:22;;;;;;;2.67;0.63;;;;;;;8.87;100.00;96050.91;5037076;28;20061;-78
2024/01/04 09:49:51;;;;;;;2.22;0.82;;;;;;;9.09;100.00;96049.56;5029156;28;20045;-80
2024/01/04 09:52:21;;;;;;;1.50;0.60;;;;;;;9.21;100.00;96050.31;5027619;28;20049;-79
2024/01/04 09:54:51;;;;;;;3.15;0.60;;;;;;;9.18;100.00;96053.72;5034923;28;20048;-79
2024/01/04 09:57:21;;;;;;;0.43;0.35;;;;;;;9.07;100.00;96062.63;5024409;28;20057;-80
2024/01/04 09:59:48;;;;;;;0.80;0.40;;;;;;;9.11;100.00;96058.91;5026263;28;20045;-79
2024/01/04 10:02:18;;;;;;;2.05;0.52;;;;;;;9.21;100.00;96057.63;5020227;28;20606;-80
2024/01/04 10:04:46;;;;;;;0.77;0.43;;;;;;;8.78;100.00;96048.34;5019876;28;20695;-80
2024/01/04 10:07:24;;;;;;;1.90;0.55;;;;;;;8.71;100.00;96055.44;5030978;28;20090;-79
2024/01/04 10:09:54;;;;;;;0.85;0.50;;;;;;;8.59;100.00;96050.06;5027360;28;20072;-81
2024/01/04 10:12:22;;;;;;;0.98;0.60;;;;;;;8.63;100.00;96037.47;5028520;28;20064;-82
2024/01/04 10:14:48;;;;;;;1.27;0.60;;;;;;;8.73;100.00;96051.28;5025727;28;20137;-81
2024/01/04 10:17:16;;;;;;;1.80;0.60;;;;;;;8.82;100.00;96048.44;5041772;28;20049;-80
2024/01/04 10:19:42;;;;;;;1.08;0.60;;;;;;;8.72;100.00;96049.69;5036999;28;20224;-80
2024/01/04 10:22:09;;;;;;;0.50;0.35;;;;;;;8.77;100.00;96059.47;5020046;28;20056;-78
2024/01/04 10:24:38;;;;;;;1.00;0.40;;;;;;;9.01;100.00;96064.00;5037163;28;20103;-80
2024/01/04 10:27:07;;;;;;;0.77;0.50;;;;;;;8.89;100.00;96072.94;5057862;28;20048;-80
2024/01/04 10:29:37;;;;;;;1.88;0.70;;;;;;;8.86;100.00;96078.22;5050838;28;20591;-81
2024/01/04 10:32:11;;;;;;;0.90;0.40;;;;;;;9.06;100.00;96071.88;5055819;28;20053;-81
2024/01/04 10:34:39;;;;;;;1.10;0.40;;;;;;;9.03;100.00;96081.44;5053307;28;20037;-80
2024/01/04 10:37:12;;;;;;;0.90;0.50;;;;;;;8.99;100.00;96079.75;5058452;28;20063;-80
2024/01/04 10:39:45;;;;;;;1.55;0.50;;;;;;;8.96;100.00;96088.53;5061431;28;20049;-80
2024/01/04 10:42:13;;;;;;;1.48;0.60;;;;;;;8.94;100.00;96094.28;5054040;28;20041;-79
2024/01/04 10:44:43;;;;;;;3.22;0.57;;;;;;;8.97;100.00;96080.09;5047756;28;20046;-79
2024/01/04 10:47:13;;;;;;;0.95;0.50;;;;;;;8.82;100.00;96080.03;5050354;28;20113;-81
2024/01/04 10:49:41;;;;;;;1.52;0.50;;;;;;;8.89;100.00;96089.13;5059108;28;20048;-81
2024/01/04 10:52:13;;;;;;;1.15;0.60;;;;;;;8.73;100.00;96090.94;5057849;28;20060;-81
2024/01/04 10:54:41;;;;;;;0.82;0.60;;;;;;;8.78;100.00;96101.50;5047258;28;20099;-80
2024/01/04 10:57:10;;;;;;;1.40;0.60;;;;;;;8.67;100.00;96100.41;5049278;28;20056;-79
2024/01/04 10:59:37;;;;;;;1.13;0.63;;;;;;;8.75;100.00;96105.66;5046585;28;20041;-80
2024/01/04 11:02:05;;;;;;;2.03;0.60;;;;;;;8.91;100.00;96097.66;5050198;28;20049;-81
2024/01/04 11:04:34;;;;;;;0.80;0.45;;;;;;;8.72;100.00;96090.16;5050665;28;20040;-82
2024/01/04 11:07:01;;;;;;;3.40;0.57;;;;;;;8.80;100.00;96101.19;5043922;28;20412;-80
2024/01/04 11:09:30;;;;;;;2.25;0.80;;;;;;;8.84;100.00;96105.53;5059312;28;20110;-80
2024/01/04 11:11:58;;;;;;;0.77;0.55;;;;;;;8.90;100.00;96116.88;5041823;28;20112;-80
2024/01/04 11:14:26;;;;;;;1.92;0.60;;;;;;;8.77;100.00;96114.19;5043583;28;20064;-80
2024/01/04 11:17:15;;;;;;;1.27;0.60;;;;;;;8.84;100.00;96116.34;5058044;28;20075;-79
2024/01/04 11:20:00;;;;;;;1.70;0.68;;;;;;;8.75;100.00;96102.97;5047203;28;20302;-81
2024/01/04 11:22:48;;;;;;;1.00;0.60;;;;;;;8.91;100.00;96105.75;5042524;28;20061;-80
2024/01/04 11:25:50;;;;;;;3.22;0.60;;;;;;;8.96;100.00;96113.59;5047188;28;20287;-80
2024/01/04 11:28:17;;;;;;;1.30;0.70;;;;;;;8.94;100.00;96105.06;5036519;28;20601;-79
2024/01/04 11:31:00;;;;;;;1.40;0.68;;;;;;;8.94;100.00;96105.06;5053627;28;20041;-78
2024/01/04 11:33:27;;;;;;;2.97;0.80;;;;;;;8.89;100.00;96115.31;5058133;28;20059;-79
2024/01/04 11:35:55;;;;;;;2.67;0.88;;;;;;;8.91;100.00;96108.44;5046478;28;20053;-80